createdAt,value
2022-11-10T00:02:17.460Z,8.88
2022-11-10T00:05:02.134Z,8.94
2022-11-10T00:07:46.801Z,8.85
2022-11-10T00:10:32.214Z,9.04
2022-11-10T00:13:16.814Z,9.10
2022-11-10T00:16:22.649Z,9.14
2022-11-10T00:19:07.874Z,9.21
2022-11-10T00:21:52.889Z,9.30
2022-11-10T00:24:37.621Z,9.34
2022-11-10T00:27:22.207Z,9.38
2022-11-10T00:30:07.280Z,9.43
2022-11-10T00:32:51.996Z,9.50
2022-11-10T00:35:36.714Z,9.63
2022-11-10T00:38:21.298Z,9.67
2022-11-10T00:41:06.181Z,9.72
2022-11-10T00:43:51.135Z,9.77
2022-11-10T00:46:35.673Z,9.77
2022-11-10T00:49:20.265Z,9.89
2022-11-10T00:52:04.916Z,9.94
2022-11-10T00:54:49.574Z,9.98
2022-11-10T00:57:34.138Z,9.99
2022-11-10T01:00:19.262Z,10.00
2022-11-10T01:03:03.928Z,10.02
2022-11-10T01:05:48.530Z,9.89
2022-11-10T01:08:33.078Z,10.07
2022-11-10T01:11:18.946Z,9.95
2022-11-10T01:14:03.790Z,10.10
2022-11-10T01:16:48.508Z,10.13
2022-11-10T01:19:33.559Z,10.13
2022-11-10T01:22:18.302Z,10.13
2022-11-10T01:25:03.637Z,10.07
2022-11-10T01:27:48.280Z,10.10
2022-11-10T01:30:33.036Z,10.10
2022-11-10T01:33:17.752Z,10.06
2022-11-10T01:36:02.735Z,10.10
2022-11-10T01:38:47.186Z,10.12
2022-11-10T01:41:31.918Z,10.14
2022-11-10T01:44:21.829Z,10.14
2022-11-10T01:47:06.655Z,10.18
2022-11-10T01:49:51.279Z,10.19
2022-11-10T01:52:37.112Z,10.18
2022-11-10T01:55:23.314Z,10.09
2022-11-10T01:58:08.339Z,10.27
2022-11-10T02:00:53.342Z,10.33
2022-11-10T02:03:53.374Z,10.35
2022-11-10T02:06:40.734Z,10.38
2022-11-10T02:09:25.504Z,10.40
2022-11-10T02:12:11.239Z,10.33
2022-11-10T02:14:56.030Z,10.38
2022-11-10T02:17:41.462Z,10.45
2022-11-10T02:20:25.913Z,10.45
2022-11-10T02:23:15.480Z,10.43
2022-11-10T02:26:01.610Z,10.43
2022-11-10T02:28:46.350Z,10.42
2022-11-10T02:31:31.233Z,10.40
2022-11-10T02:34:16.081Z,10.34
2022-11-10T02:37:00.674Z,10.32
2022-11-10T02:39:45.279Z,10.25
2022-11-10T02:42:30.000Z,10.25
2022-11-10T02:45:14.611Z,10.25
2022-11-10T02:47:59.138Z,10.24
2022-11-10T02:50:44.242Z,10.15
2022-11-10T02:53:29.057Z,10.09
2022-11-10T02:56:13.652Z,10.05
2022-11-10T02:58:58.406Z,10.03
2022-11-10T03:01:43.112Z,10.03
2022-11-10T03:04:27.498Z,10.06
2022-11-10T03:07:12.414Z,10.07
2022-11-10T03:09:56.834Z,10.12
2022-11-10T03:12:41.513Z,10.11
2022-11-10T03:15:26.284Z,10.14
2022-11-10T03:18:11.044Z,10.14
2022-11-10T03:20:55.951Z,10.17
2022-11-10T03:23:40.565Z,10.14
2022-11-10T03:26:25.121Z,10.15
2022-11-10T03:29:09.678Z,10.06
2022-11-10T03:31:54.519Z,10.13
2022-11-10T03:34:39.418Z,10.10
2022-11-10T03:37:24.143Z,10.10
2022-11-10T03:40:09.384Z,10.10
2022-11-10T03:42:54.190Z,10.12
2022-11-10T03:45:38.828Z,10.13
2022-11-10T03:48:23.427Z,10.12
2022-11-10T03:51:08.005Z,10.13
2022-11-10T03:53:52.375Z,10.12
2022-11-10T03:56:37.114Z,10.07
2022-11-10T03:59:21.539Z,10.11
2022-11-10T04:02:06.262Z,10.09
2022-11-10T04:05:09.551Z,10.06
2022-11-10T04:08:20.206Z,10.05
2022-11-10T04:11:05.158Z,10.03
2022-11-10T04:14:08.026Z,10.04
2022-11-10T04:16:52.824Z,10.04
2022-11-10T04:19:37.443Z,10.05
2022-11-10T04:22:41.881Z,9.98
2022-11-10T04:25:26.382Z,9.96
2022-11-10T04:28:11.040Z,9.88
2022-11-10T04:30:55.662Z,9.83
2022-11-10T04:33:41.879Z,9.79
2022-11-10T04:36:29.722Z,9.69
2022-11-10T04:39:14.324Z,9.68
2022-11-10T04:42:02.739Z,9.82
2022-11-10T04:44:48.380Z,9.85
2022-11-10T04:47:33.179Z,9.88
2022-11-10T04:50:17.881Z,9.97
2022-11-10T04:53:02.328Z,9.98
2022-11-10T04:55:47.420Z,10.01
2022-11-10T04:58:31.898Z,10.03
2022-11-10T05:01:19.186Z,10.01
2022-11-10T05:04:05.575Z,9.97
2022-11-10T05:06:50.026Z,9.98
2022-11-10T05:09:34.751Z,9.98
2022-11-10T05:12:22.352Z,9.98
2022-11-10T05:15:07.735Z,9.97
2022-11-10T05:17:54.418Z,9.88
2022-11-10T05:20:38.927Z,9.97
2022-11-10T05:23:38.412Z,9.98
2022-11-10T05:26:23.203Z,9.98
2022-11-10T05:29:07.926Z,10.00
2022-11-10T05:31:52.475Z,10.01
2022-11-10T05:34:37.049Z,10.04
2022-11-10T05:37:21.733Z,10.03
2022-11-10T05:40:07.098Z,10.03
2022-11-10T05:42:52.981Z,10.05
2022-11-10T05:45:37.793Z,10.08
2022-11-10T05:48:22.714Z,10.11
2022-11-10T05:51:07.215Z,10.16
2022-11-10T05:53:51.783Z,10.07
2022-11-10T05:56:36.343Z,10.14
2022-11-10T05:59:20.889Z,10.27
2022-11-10T06:02:05.372Z,10.30
2022-11-10T06:04:49.843Z,10.26
2022-11-10T06:07:34.859Z,10.38
2022-11-10T06:10:19.834Z,10.43
2022-11-10T06:13:04.922Z,10.46
2022-11-10T06:15:50.689Z,10.50
2022-11-10T06:18:35.250Z,10.52
2022-11-10T06:21:20.033Z,10.56
2022-11-10T06:24:04.974Z,10.49
2022-11-10T06:26:49.974Z,10.61
2022-11-10T06:29:35.853Z,10.57
2022-11-10T06:32:21.835Z,10.63
2022-11-10T06:35:18.708Z,10.43
2022-11-10T06:38:06.481Z,10.56
2022-11-10T06:40:52.353Z,10.68
2022-11-10T06:43:37.154Z,10.72
2022-11-10T06:46:21.870Z,10.74
2022-11-10T06:49:06.733Z,10.80
2022-11-10T06:51:53.839Z,10.83
2022-11-10T06:54:43.190Z,10.79
2022-11-10T06:57:27.956Z,10.86
2022-11-10T07:00:13.116Z,10.74
2022-11-10T07:03:06.711Z,10.94
2022-11-10T07:05:51.438Z,10.94
2022-11-10T07:08:36.196Z,10.95
2022-11-10T07:11:20.789Z,10.81
2022-11-10T07:14:05.385Z,10.85
2022-11-10T07:16:50.349Z,10.95
2022-11-10T07:19:35.987Z,10.97
2022-11-10T07:22:20.638Z,10.92
2022-11-10T07:25:05.664Z,11.02
2022-11-10T07:27:57.126Z,10.98
2022-11-10T07:30:44.480Z,11.06
2022-11-10T07:33:29.731Z,11.11
2022-11-10T07:36:14.168Z,11.02
2022-11-10T07:38:59.072Z,11.18
2022-11-10T07:41:46.624Z,11.20
2022-11-10T07:44:33.418Z,11.23
2022-11-10T07:47:18.979Z,11.24
2022-11-10T07:50:05.655Z,11.21
2022-11-10T07:52:50.262Z,11.31
2022-11-10T07:55:36.332Z,11.33
2022-11-10T07:58:21.190Z,11.37
2022-11-10T08:01:07.498Z,11.06
2022-11-10T08:03:51.931Z,11.23
2022-11-10T08:06:36.945Z,11.29
2022-11-10T08:09:21.944Z,11.29
2022-11-10T08:12:07.940Z,11.33
2022-11-10T08:14:52.664Z,11.33
2022-11-10T08:17:37.387Z,11.34
2022-11-10T08:20:22.223Z,11.25
2022-11-10T08:23:07.040Z,11.25
2022-11-10T08:25:53.312Z,10.93
2022-11-10T08:28:48.024Z,11.29
2022-11-10T08:31:35.730Z,11.30
2022-11-10T08:34:31.564Z,11.26
2022-11-10T08:37:17.979Z,11.35
2022-11-10T08:40:04.495Z,11.35
2022-11-10T08:42:59.757Z,11.35
2022-11-10T08:45:45.208Z,11.21
2022-11-10T08:48:34.883Z,11.34
2022-11-10T08:51:27.177Z,10.77
2022-11-10T08:54:11.773Z,11.35
2022-11-10T08:56:56.541Z,11.32
2022-11-10T08:59:45.427Z,11.33
2022-11-10T09:02:30.668Z,11.34
2022-11-10T09:05:15.635Z,11.36
2022-11-10T09:08:00.256Z,11.37
2022-11-10T09:10:47.269Z,11.28
2022-11-10T09:13:32.069Z,11.25
2022-11-10T09:16:17.078Z,11.33
2022-11-10T09:19:01.811Z,11.36
2022-11-10T09:22:11.410Z,10.84
2022-11-10T09:24:56.862Z,11.29
2022-11-10T09:27:41.640Z,11.21
2022-11-10T09:30:26.547Z,11.32
2022-11-10T09:33:14.659Z,11.31
2022-11-10T09:36:01.118Z,11.41
2022-11-10T09:38:46.650Z,11.48
2022-11-10T09:41:31.693Z,11.53
2022-11-10T09:44:25.991Z,11.56
2022-11-10T09:47:29.172Z,11.65
2022-11-10T09:50:30.673Z,11.63
2022-11-10T09:53:22.739Z,11.62
2022-11-10T09:56:09.067Z,11.65
2022-11-10T09:58:53.702Z,11.52
2022-11-10T10:01:43.605Z,11.66
2022-11-10T10:04:52.029Z,11.56
2022-11-10T10:07:51.788Z,11.70
2022-11-10T10:10:42.563Z,11.48
2022-11-10T10:13:54.144Z,11.75
2022-11-10T10:17:14.130Z,11.62
2022-11-10T10:20:22.146Z,11.67
2022-11-10T10:24:07.778Z,11.71
2022-11-10T10:26:53.098Z,11.72
2022-11-10T10:29:42.119Z,11.81
2022-11-10T10:32:27.152Z,11.86
2022-11-10T10:35:18.860Z,11.77
2022-11-10T10:38:05.002Z,11.80
2022-11-10T10:40:51.436Z,11.79
2022-11-10T10:43:36.320Z,11.72
2022-11-10T10:46:28.418Z,11.73
2022-11-10T10:49:33.812Z,11.80
2022-11-10T10:52:24.803Z,11.85
2022-11-10T10:55:12.879Z,11.94
2022-11-10T10:58:03.857Z,11.93
2022-11-10T11:00:51.757Z,11.96
2022-11-10T11:03:46.646Z,11.91
2022-11-10T11:06:35.395Z,11.96
2022-11-10T11:09:41.243Z,12.09
2022-11-10T11:12:27.741Z,12.29
2022-11-10T11:15:23.014Z,12.53
2022-11-10T11:18:16.335Z,12.57
2022-11-10T11:21:02.912Z,12.42
2022-11-10T11:23:56.726Z,12.37
2022-11-10T11:26:50.256Z,12.38
2022-11-10T11:29:42.692Z,12.36
2022-11-10T11:33:20.631Z,12.36
2022-11-10T11:36:45.784Z,12.23
2022-11-10T11:39:59.563Z,12.30
2022-11-10T11:43:00.336Z,12.31
2022-11-10T11:45:56.917Z,12.50
2022-11-10T11:48:45.769Z,12.64
2022-11-10T11:51:49.291Z,12.64
2022-11-10T11:55:30.092Z,12.67
2022-11-10T11:58:32.693Z,12.63
2022-11-10T12:01:40.256Z,12.62
2022-11-10T12:04:53.772Z,12.56
2022-11-10T12:08:11.300Z,12.46
2022-11-10T12:11:08.877Z,12.19
2022-11-10T12:13:53.173Z,12.43
2022-11-10T12:16:38.857Z,12.19
2022-11-10T12:19:35.582Z,12.42
2022-11-10T12:22:35.544Z,12.30
2022-11-10T12:25:52.883Z,12.46
2022-11-10T12:29:18.146Z,12.40
2022-11-10T12:32:15.570Z,12.42
2022-11-10T12:35:21.080Z,12.42
2022-11-10T12:38:12.572Z,12.25
2022-11-10T12:41:09.983Z,12.34
2022-11-10T12:44:02.241Z,12.23
2022-11-10T12:46:52.156Z,12.26
2022-11-10T12:49:39.396Z,12.00
2022-11-10T12:52:35.638Z,12.18
2022-11-10T12:55:30.654Z,12.16
2022-11-10T12:58:17.279Z,12.17
2022-11-10T13:01:05.532Z,12.10
2022-11-10T13:03:59.359Z,11.87
2022-11-10T13:06:53.137Z,12.04
2022-11-10T13:09:41.712Z,12.04
2022-11-10T13:12:36.687Z,11.99
2022-11-10T13:15:52.516Z,11.81
2022-11-10T13:18:37.283Z,11.93
2022-11-10T13:21:51.055Z,11.93
2022-11-10T13:24:38.216Z,11.90
2022-11-10T13:27:38.056Z,11.77
2022-11-10T13:30:44.904Z,11.83
2022-11-10T13:34:14.815Z,11.84
2022-11-10T13:37:21.245Z,11.70
2022-11-10T13:40:30.988Z,11.67
2022-11-10T13:43:22.054Z,11.74
2022-11-10T13:46:08.492Z,11.73
2022-11-10T13:49:04.850Z,11.67
2022-11-10T13:52:19.458Z,11.58
2022-11-10T13:55:21.885Z,11.66
2022-11-10T13:58:17.702Z,11.63
2022-11-10T14:01:17.796Z,11.52
2022-11-10T14:04:12.026Z,11.58
2022-11-10T14:06:57.558Z,11.31
2022-11-10T14:09:52.382Z,11.18
2022-11-10T14:13:07.260Z,11.49
2022-11-10T14:15:58.289Z,11.48
2022-11-10T14:18:49.576Z,11.31
2022-11-10T14:22:25.373Z,11.36
2022-11-10T14:26:07.073Z,11.43
2022-11-10T14:28:52.814Z,11.33
2022-11-10T14:31:37.576Z,11.31
2022-11-10T14:34:23.813Z,11.19
2022-11-10T14:37:15.977Z,11.38
2022-11-10T14:40:04.506Z,11.30
2022-11-10T14:42:54.216Z,11.34
2022-11-10T14:45:41.293Z,11.15
2022-11-10T14:48:28.480Z,11.18
2022-11-10T14:52:19.119Z,11.29
2022-11-10T14:55:24.310Z,11.29
2022-11-10T14:58:13.514Z,11.26
2022-11-10T15:01:06.029Z,11.18
2022-11-10T15:03:52.144Z,11.01
2022-11-10T15:06:43.203Z,11.17
2022-11-10T15:09:31.493Z,11.12
2022-11-10T15:12:25.506Z,11.16
2022-11-10T15:15:23.256Z,11.00
2022-11-10T15:18:24.520Z,10.98
2022-11-10T15:21:12.231Z,11.14
2022-11-10T15:24:00.824Z,10.95
2022-11-10T15:26:45.819Z,11.07
2022-11-10T15:29:31.103Z,11.06
2022-11-10T15:32:17.803Z,11.02
2022-11-10T15:35:22.654Z,10.96
2022-11-10T15:38:27.857Z,10.92
2022-11-10T15:41:26.812Z,10.89
2022-11-10T15:44:16.494Z,10.80
2022-11-10T15:47:01.181Z,10.75
2022-11-10T15:49:46.122Z,10.66
2022-11-10T15:52:30.977Z,10.60
2022-11-10T15:55:20.261Z,10.60
2022-11-10T15:58:10.854Z,10.52
2022-11-10T16:00:55.672Z,10.44
2022-11-10T16:03:40.615Z,10.39
2022-11-10T16:06:25.416Z,10.27
2022-11-10T16:09:12.945Z,10.31
2022-11-10T16:11:57.696Z,10.29
2022-11-10T16:14:45.396Z,10.26
2022-11-10T16:17:29.948Z,10.26
2022-11-10T16:20:15.301Z,10.27
2022-11-10T16:23:00.209Z,10.27
2022-11-10T16:25:45.455Z,10.24
2022-11-10T16:28:30.394Z,10.11
2022-11-10T16:31:17.025Z,10.29
2022-11-10T16:34:01.745Z,10.29
2022-11-10T16:36:47.469Z,10.30
2022-11-10T16:39:32.288Z,10.30
2022-11-10T16:42:16.877Z,10.31
2022-11-10T16:45:01.594Z,10.34
2022-11-10T16:47:48.666Z,10.34
2022-11-10T16:50:37.742Z,10.35
2022-11-10T16:53:24.742Z,10.34
2022-11-10T16:56:14.453Z,10.34
2022-11-10T16:58:59.234Z,10.26
2022-11-10T17:01:45.030Z,10.35
2022-11-10T17:04:29.621Z,10.35
2022-11-10T17:07:14.837Z,10.35
2022-11-10T17:10:00.853Z,10.37
2022-11-10T17:12:46.317Z,10.26
2022-11-10T17:15:32.258Z,10.37
2022-11-10T17:18:18.669Z,10.36
2022-11-10T17:21:05.605Z,10.26
2022-11-10T17:23:50.498Z,10.38
2022-11-10T17:26:35.295Z,10.39
2022-11-10T17:29:21.215Z,10.30
2022-11-10T17:32:05.960Z,10.36
2022-11-10T17:34:50.981Z,10.37
2022-11-10T17:37:35.615Z,10.37
2022-11-10T17:40:25.429Z,10.36
2022-11-10T17:43:13.937Z,10.35
2022-11-10T17:45:59.409Z,10.38
2022-11-10T17:48:44.316Z,10.37
2022-11-10T17:51:30.287Z,10.35
2022-11-10T17:54:15.467Z,10.30
2022-11-10T17:57:00.397Z,10.38
2022-11-10T17:59:45.313Z,10.37
2022-11-10T18:02:29.800Z,10.36
2022-11-10T18:05:16.755Z,10.34
2022-11-10T18:08:02.009Z,10.34
2022-11-10T18:10:50.529Z,10.26
2022-11-10T18:13:36.783Z,10.29
2022-11-10T18:16:21.742Z,10.15
2022-11-10T18:19:06.372Z,10.25
2022-11-10T18:21:50.905Z,10.24
2022-11-10T18:24:35.893Z,10.20
2022-11-10T18:27:20.456Z,10.18
2022-11-10T18:30:05.696Z,10.16
2022-11-10T18:32:50.691Z,10.14
2022-11-10T18:35:38.456Z,10.11
2022-11-10T18:38:23.030Z,10.07
2022-11-10T18:41:26.327Z,10.06
2022-11-10T18:44:11.120Z,10.05
2022-11-10T18:46:56.441Z,10.03
2022-11-10T18:49:41.152Z,10.01
2022-11-10T18:52:26.012Z,9.86
2022-11-10T18:55:10.936Z,9.97
2022-11-10T18:57:55.591Z,9.96
2022-11-10T19:00:40.113Z,9.99
2022-11-10T19:03:25.080Z,10.00
2022-11-10T19:06:10.249Z,10.02
2022-11-10T19:08:56.471Z,10.02
2022-11-10T19:11:41.094Z,9.93
2022-11-10T19:14:25.889Z,10.10
2022-11-10T19:17:10.744Z,10.12
2022-11-10T19:19:56.803Z,10.14
2022-11-10T19:22:41.653Z,10.14
2022-11-10T19:25:26.214Z,10.14
2022-11-10T19:28:11.631Z,10.13
2022-11-10T19:31:13.061Z,9.97
2022-11-10T19:33:57.898Z,10.09
2022-11-10T19:36:42.458Z,10.06
2022-11-10T19:39:26.835Z,10.03
2022-11-10T19:42:11.781Z,10.02
2022-11-10T19:44:56.345Z,9.97
2022-11-10T19:47:41.672Z,10.00
2022-11-10T19:50:26.381Z,9.97
2022-11-10T19:53:10.959Z,9.92
2022-11-10T19:56:07.497Z,9.88
2022-11-10T19:58:52.174Z,9.79
2022-11-10T20:01:37.596Z,9.68
2022-11-10T20:04:22.196Z,9.55
2022-11-10T20:07:25.084Z,9.43
2022-11-10T20:10:10.197Z,9.26
2022-11-10T20:12:55.345Z,9.13
2022-11-10T20:15:41.149Z,9.11
2022-11-10T20:18:25.777Z,8.85
2022-11-10T20:21:12.938Z,8.94
2022-11-10T20:23:57.779Z,8.83
2022-11-10T20:26:42.380Z,8.77
2022-11-10T20:29:27.144Z,8.70
2022-11-10T20:32:11.884Z,8.60
2022-11-10T20:34:56.420Z,8.56
2022-11-10T20:37:41.103Z,8.29
2022-11-10T20:40:43.324Z,8.43
2022-11-10T20:43:28.982Z,8.42
2022-11-10T20:46:33.409Z,8.41
2022-11-10T20:49:21.201Z,8.29
2022-11-10T20:52:05.953Z,8.39
2022-11-10T20:54:50.654Z,8.31
2022-11-10T20:57:35.517Z,8.18
2022-11-10T21:00:20.350Z,8.06
2022-11-10T21:03:05.541Z,8.16
2022-11-10T21:05:54.605Z,8.16
2022-11-10T21:08:39.525Z,8.20
2022-11-10T21:11:42.552Z,8.02
2022-11-10T21:14:27.407Z,8.11
2022-11-10T21:17:12.123Z,8.28
2022-11-10T21:19:56.629Z,8.15
2022-11-10T21:22:41.324Z,8.10
2022-11-10T21:25:26.079Z,8.01
2022-11-10T21:28:10.723Z,8.08
2022-11-10T21:31:04.963Z,8.10
2022-11-10T21:33:49.838Z,8.15
2022-11-10T21:36:34.714Z,7.99
2022-11-10T21:39:19.396Z,7.91
2022-11-10T21:42:04.209Z,7.84
2022-11-10T21:44:48.930Z,7.87
2022-11-10T21:47:33.778Z,7.84
2022-11-10T21:50:19.091Z,7.86
2022-11-10T21:53:10.477Z,7.88
2022-11-10T21:55:59.044Z,7.94
2022-11-10T21:58:43.822Z,7.98
2022-11-10T22:01:28.786Z,8.03
2022-11-10T22:04:15.021Z,8.11
2022-11-10T22:07:17.914Z,8.13
2022-11-10T22:10:21.019Z,8.19
2022-11-10T22:13:24.263Z,8.18
2022-11-10T22:16:39.150Z,8.09
2022-11-10T22:19:24.089Z,8.02
2022-11-10T22:22:08.603Z,7.94
2022-11-10T22:24:53.495Z,7.84
2022-11-10T22:27:38.149Z,7.87
2022-11-10T22:30:23.085Z,7.90
2022-11-10T22:33:27.089Z,7.87
2022-11-10T22:36:14.655Z,7.87
2022-11-10T22:39:03.422Z,7.85
2022-11-10T22:42:07.528Z,7.76
2022-11-10T22:44:52.215Z,7.69
2022-11-10T22:48:06.273Z,7.61
2022-11-10T22:50:57.639Z,7.63
2022-11-10T22:53:42.163Z,7.49
2022-11-10T22:56:27.325Z,7.42
2022-11-10T22:59:12.771Z,7.22
2022-11-10T23:01:57.439Z,7.34
2022-11-10T23:04:42.307Z,7.30
2022-11-10T23:07:28.477Z,7.18
2022-11-10T23:10:13.322Z,7.27
2022-11-10T23:12:57.833Z,7.28
2022-11-10T23:15:42.436Z,7.23
2022-11-10T23:18:27.069Z,7.20
2022-11-10T23:21:15.121Z,7.14
2022-11-10T23:23:59.816Z,7.17
2022-11-10T23:26:44.361Z,7.11
2022-11-10T23:29:29.204Z,7.09
2022-11-10T23:32:13.723Z,7.08
2022-11-10T23:34:58.523Z,7.06
2022-11-10T23:37:43.275Z,7.03
2022-11-10T23:40:28.203Z,6.96
2022-11-10T23:43:12.918Z,6.87
2022-11-10T23:46:06.759Z,6.86
2022-11-10T23:48:52.364Z,6.84
2022-11-10T23:51:37.399Z,6.80
2022-11-10T23:54:21.838Z,6.79
2022-11-10T23:57:06.431Z,6.76
2022-11-10T23:59:51.177Z,6.78
